Time;durP1;ratioP1;P1;durP2;ratioP2;P2;SDS_P1;SDS_P2;PMS_P1;PMS_P2;Temp;Humidity;BMP_temperature;BMP_pressure;BME280_temperature;BME280_humidity;BME280_pressure;Samples;Min_cycle;Max_cycle;Signal;HPM_P1;HPM_P2
2022/06/28 00:00:51;;;;;;;10.02;8.13;;;;;;;;;;5051117;28;20052;-79
2022/06/28 00:03:17;;;;;;;10.45;6.30;;;;;;;;;;5051976;28;20389;-78
2022/06/28 00:05:43;;;;;;;9.90;6.72;;;;;;;;;;5052081;28;20041;-79
2022/06/28 00:08:09;;;;;;;8.73;6.70;;;;;;;;;;5051181;28;20162;-79
2022/06/28 00:10:35;;;;;;;11.70;7.15;;;;;;;;;;5052159;28;20162;-78
2022/06/28 00:13:01;;;;;;;9.05;6.50;;;;;;;;;;5051568;28;20055;-79
2022/06/28 00:18:12;;;;;;;10.50;6.97;;;;;;;;;;5053045;28;20405;-78
2022/06/28 00:20:38;;;;;;;12.68;6.35;;;;;;;;;;5051059;28;20118;-78
2022/06/28 00:23:04;;;;;;;12.00;7.68;;;;;;;;;;5050696;28;20045;-78
2022/06/28 00:25:30;;;;;;;11.18;6.63;;;;;;;;;;5051995;28;20391;-79
2022/06/28 00:27:56;;;;;;;10.13;6.18;;;;;;;;;;5052423;28;20569;-79
2022/06/28 00:30:22;;;;;;;10.63;6.38;;;;;;;;;;5052371;28;20398;-78
2022/06/28 00:32:48;;;;;;;9.52;6.70;;;;;;;;;;5051391;28;20041;-79
2022/06/28 00:35:14;;;;;;;9.93;6.75;;;;;;;;;;5050789;28;20045;-78
2022/06/28 00:37:40;;;;;;;13.05;7.55;;;;;;;;;;5052950;28;20082;-78
2022/06/28 00:40:06;;;;;;;9.30;6.25;;;;;;;;;;5051225;28;20402;-79
2022/06/28 00:42:32;;;;;;;9.70;7.30;;;;;;;;;;5051026;28;20132;-78
2022/06/28 00:44:59;;;;;;;10.02;7.30;;;;;;;;;;5050793;28;20041;-79
2022/06/28 00:47:25;;;;;;;10.68;6.90;;;;;;;;;;5051724;28;20048;-78
2022/06/28 00:49:51;;;;;;;12.43;6.75;;;;;;;;;;5034158;28;20443;-78
2022/06/28 00:52:17;;;;;;;9.65;6.88;;;;;;;;;;5051163;28;20045;-78
2022/06/28 00:54:43;;;;;;;11.38;7.28;;;;;;;;;;5051123;28;20077;-78
2022/06/28 00:57:09;;;;;;;10.65;7.03;;;;;;;;;;5050176;28;20130;-78
2022/06/28 00:59:36;;;;;;;14.23;8.98;;;;;;;;;;5034489;28;20041;-79
2022/06/28 01:02:02;;;;;;;10.65;7.97;;;;;;;;;;5052001;28;20072;-78
2022/06/28 01:04:29;;;;;;;10.00;7.35;;;;;;;;;;5051815;28;20401;-79
2022/06/28 01:06:55;;;;;;;10.57;7.13;;;;;;;;;;5051987;28;20047;-78
2022/06/28 01:09:21;;;;;;;12.38;7.97;;;;;;;;;;5052450;28;20405;-79
2022/06/28 01:11:47;;;;;;;13.65;7.95;;;;;;;;;;5051280;28;20051;-79
2022/06/28 01:14:13;;;;;;;11.45;7.18;;;;;;;;;;5050683;28;20048;-79
2022/06/28 01:16:40;;;;;;;10.90;7.78;;;;;;;;;;5051091;28;20132;-79
2022/06/28 01:19:07;;;;;;;10.80;7.13;;;;;;;;;;5049596;28;20512;-79
2022/06/28 01:21:34;;;;;;;11.63;7.30;;;;;;;;;;5051012;28;20045;-79
2022/06/28 01:24:00;;;;;;;15.77;7.85;;;;;;;;;;5050367;28;20103;-78
2022/06/28 01:26:26;;;;;;;13.82;7.18;;;;;;;;;;5050191;28;20054;-79
2022/06/28 01:28:53;;;;;;;12.02;8.38;;;;;;;;;;5050440;28;20077;-79
2022/06/28 01:31:20;;;;;;;11.25;8.40;;;;;;;;;;5050790;28;20541;-79
2022/06/28 01:33:46;;;;;;;11.40;7.88;;;;;;;;;;5050277;28;20040;-79
2022/06/28 01:36:12;;;;;;;11.25;8.02;;;;;;;;;;5051977;28;20091;-79
2022/06/28 01:38:39;;;;;;;9.82;7.63;;;;;;;;;;5049923;28;20044;-79
2022/06/28 01:41:06;;;;;;;9.63;7.38;;;;;;;;;;5050187;28;20037;-79
2022/06/28 01:43:32;;;;;;;13.65;8.43;;;;;;;;;;5050965;28;20037;-79
2022/06/28 01:45:59;;;;;;;11.52;8.27;;;;;;;;;;5049696;28;20389;-79
2022/06/28 01:48:26;;;;;;;11.15;7.40;;;;;;;;;;5050808;28;20041;-79
2022/06/28 01:50:54;;;;;;;11.48;7.50;;;;;;;;;;5051689;28;20047;-79
2022/06/28 01:53:21;;;;;;;14.27;9.18;;;;;;;;;;5050259;28;20041;-79
2022/06/28 01:55:48;;;;;;;10.70;7.78;;;;;;;;;;5050733;28;20033;-79
2022/06/28 01:58:14;;;;;;;9.52;7.25;;;;;;;;;;5051699;28;20051;-79
2022/06/28 02:00:40;;;;;;;13.77;7.03;;;;;;;;;;5033168;28;20470;-79
2022/06/28 02:03:07;;;;;;;12.18;8.20;;;;;;;;;;5051427;28;20124;-79
2022/06/28 02:05:33;;;;;;;18.17;8.77;;;;;;;;;;5051903;28;20033;-78
2022/06/28 02:08:00;;;;;;;13.18;7.75;;;;;;;;;;5049316;28;20041;-79
2022/06/28 02:10:26;;;;;;;9.73;7.70;;;;;;;;;;5050570;28;20041;-79
2022/06/28 02:12:53;;;;;;;12.43;7.20;;;;;;;;;;5050352;28;20049;-78
2022/06/28 02:15:19;;;;;;;13.07;7.57;;;;;;;;;;5050089;28;20037;-79
2022/06/28 02:17:45;;;;;;;10.43;6.93;;;;;;;;;;5051539;28;20048;-79
2022/06/28 02:20:12;;;;;;;13.48;7.47;;;;;;;;;;5050083;28;20049;-79
2022/06/28 02:22:38;;;;;;;11.77;6.90;;;;;;;;;;5050768;28;20052;-79
2022/06/28 02:25:04;;;;;;;16.10;7.43;;;;;;;;;;5050273;28;20118;-79
2022/06/28 02:27:30;;;;;;;12.60;7.70;;;;;;;;;;5050541;28;20052;-79
2022/06/28 02:29:57;;;;;;;11.40;7.07;;;;;;;;;;5049328;28;20398;-79
2022/06/28 02:32:23;;;;;;;11.43;7.03;;;;;;;;;;5051721;28;20052;-79
2022/06/28 02:40:27;;;;;;;11.73;7.30;;;;;;;;;;5051480;28;20051;-79
2022/06/28 02:42:54;;;;;;;8.70;5.75;;;;;;;;;;5050822;28;20029;-79
2022/06/28 02:45:20;;;;;;;12.63;7.35;;;;;;;;;;5053848;28;20041;-79
2022/06/28 02:47:47;;;;;;;10.88;6.53;;;;;;;;;;5053505;28;20034;-79
2022/06/28 02:50:13;;;;;;;11.48;6.60;;;;;;;;;;5053055;28;20205;-79
2022/06/28 02:52:40;;;;;;;11.52;6.45;;;;;;;;;;5054954;28;20466;-79
2022/06/28 02:55:06;;;;;;;9.45;5.78;;;;;;;;;;5052941;28;20041;-79
2022/06/28 02:57:32;;;;;;;11.20;6.45;;;;;;;;;;5052822;28;20056;-79
2022/06/28 02:59:58;;;;;;;10.48;6.28;;;;;;;;;;5052914;28;20051;-80
2022/06/28 03:02:24;;;;;;;9.68;6.50;;;;;;;;;;5053494;28;20493;-79
2022/06/28 03:04:50;;;;;;;11.90;6.50;;;;;;;;;;5053671;28;20044;-80
2022/06/28 03:07:16;;;;;;;10.00;6.72;;;;;;;;;;5053222;28;20124;-79
2022/06/28 03:09:42;;;;;;;10.77;6.18;;;;;;;;;;5054534;28;20083;-80
2022/06/28 03:12:09;;;;;;;10.40;6.60;;;;;;;;;;5052565;28;20379;-79
2022/06/28 03:14:35;;;;;;;8.65;5.65;;;;;;;;;;5054459;28;20037;-79
2022/06/28 03:17:01;;;;;;;12.75;6.90;;;;;;;;;;5035413;28;20048;-80
2022/06/28 03:19:27;;;;;;;10.80;6.40;;;;;;;;;;5054331;28;20091;-80
2022/06/28 03:21:53;;;;;;;9.20;6.43;;;;;;;;;;5052614;28;20041;-80
2022/06/28 03:24:19;;;;;;;9.95;6.65;;;;;;;;;;5053714;28;20056;-79
2022/06/28 03:26:45;;;;;;;8.27;6.32;;;;;;;;;;5052789;28;20485;-80
2022/06/28 03:29:11;;;;;;;9.63;6.18;;;;;;;;;;5052703;28;20044;-80
2022/06/28 03:31:37;;;;;;;12.43;7.35;;;;;;;;;;5052219;28;20102;-79
2022/06/28 03:34:03;;;;;;;9.77;5.78;;;;;;;;;;5052493;28;20183;-80
2022/06/28 03:36:29;;;;;;;10.43;5.82;;;;;;;;;;5053153;28;20037;-79
2022/06/28 03:38:55;;;;;;;9.25;6.38;;;;;;;;;;5052805;28;20037;-79
2022/06/28 03:41:24;;;;;;;10.25;5.97;;;;;;;;;;5036187;28;20045;-79
2022/06/28 03:43:51;;;;;;;10.63;6.43;;;;;;;;;;5052304;28;20116;-80
2022/06/28 03:46:17;;;;;;;8.52;5.82;;;;;;;;;;5052134;28;20404;-80
2022/06/28 03:48:44;;;;;;;12.23;6.15;;;;;;;;;;5052717;28;20441;-80
2022/06/28 03:51:10;;;;;;;12.23;6.72;;;;;;;;;;5053696;28;20041;-80
2022/06/28 03:53:36;;;;;;;13.13;6.78;;;;;;;;;;5051679;28;20478;-80
2022/06/28 03:56:02;;;;;;;13.55;6.55;;;;;;;;;;5051879;28;20516;-80
2022/06/28 03:58:28;;;;;;;12.55;6.53;;;;;;;;;;5053751;28;20045;-80
2022/06/28 04:00:54;;;;;;;10.25;6.57;;;;;;;;;;5052450;28;20060;-80
2022/06/28 04:03:20;;;;;;;11.90;6.60;;;;;;;;;;5053584;28;20044;-80
2022/06/28 04:05:46;;;;;;;12.80;6.32;;;;;;;;;;5053412;28;20029;-80
2022/06/28 04:08:12;;;;;;;11.20;6.07;;;;;;;;;;5051288;28;20037;-80
2022/06/28 04:10:38;;;;;;;14.65;7.05;;;;;;;;;;5053505;28;20124;-80
2022/06/28 04:13:04;;;;;;;10.77;5.50;;;;;;;;;;5051791;28;20060;-80
2022/06/28 04:15:30;;;;;;;11.80;6.97;;;;;;;;;;5034707;28;20120;-80
2022/06/28 04:17:56;;;;;;;10.13;5.47;;;;;;;;;;5053010;28;20446;-80
2022/06/28 04:20:22;;;;;;;8.38;5.15;;;;;;;;;;5051163;28;20091;-80
2022/06/28 04:22:48;;;;;;;9.52;5.82;;;;;;;;;;5052939;28;20037;-81
2022/06/28 04:25:14;;;;;;;13.68;5.05;;;;;;;;;;5051920;28;20080;-80
2022/06/28 04:27:40;;;;;;;11.40;5.85;;;;;;;;;;5051051;28;20044;-80
2022/06/28 04:30:07;;;;;;;10.48;6.15;;;;;;;;;;5051285;28;20079;-80
2022/06/28 04:32:33;;;;;;;8.73;5.60;;;;;;;;;;5052055;28;20508;-81
2022/06/28 04:34:59;;;;;;;12.35;5.20;;;;;;;;;;5034162;28;20036;-80
2022/06/28 04:37:25;;;;;;;7.88;4.78;;;;;;;;;;5052956;28;20045;-81
2022/06/28 04:39:51;;;;;;;9.48;5.25;;;;;;;;;;5051425;28;20059;-81
2022/06/28 04:42:18;;;;;;;9.45;4.75;;;;;;;;;;5052088;28;20041;-81
2022/06/28 04:44:44;;;;;;;12.73;4.68;;;;;;;;;;5052657;28;20051;-80
2022/06/28 04:47:10;;;;;;;10.43;4.57;;;;;;;;;;5052605;28;20037;-81
2022/06/28 04:49:36;;;;;;;10.80;4.38;;;;;;;;;;5050745;28;20120;-81
2022/06/28 04:52:02;;;;;;;11.98;4.25;;;;;;;;;;5052164;28;20056;-81
2022/06/28 04:54:28;;;;;;;9.30;4.43;;;;;;;;;;5052488;28;20036;-81
2022/06/28 04:56:55;;;;;;;12.45;4.43;;;;;;;;;;5050199;28;20049;-81
2022/06/28 04:59:21;;;;;;;9.85;4.25;;;;;;;;;;5051526;28;20045;-81
2022/06/28 05:01:47;;;;;;;7.18;4.00;;;;;;;;;;5051323;28;20041;-81
2022/06/28 05:04:13;;;;;;;8.55;4.47;;;;;;;;;;5050475;28;20049;-82
2022/06/28 05:06:39;;;;;;;11.80;4.03;;;;;;;;;;5050812;28;20504;-81
2022/06/28 05:09:05;;;;;;;12.20;3.50;;;;;;;;;;5050798;28;20560;-81
2022/06/28 05:11:31;;;;;;;12.10;4.25;;;;;;;;;;5050841;28;20429;-81
2022/06/28 05:13:59;;;;;;;9.82;4.03;;;;;;;;;;5050734;28;20091;-81
2022/06/28 05:16:25;;;;;;;7.70;3.08;;;;;;;;;;5051122;28;20055;-81
2022/06/28 05:18:51;;;;;;;9.48;3.53;;;;;;;;;;5051342;28;20136;-81
2022/06/28 05:21:17;;;;;;;7.35;3.22;;;;;;;;;;5034070;28;20497;-82
2022/06/28 05:23:43;;;;;;;11.80;3.30;;;;;;;;;;5051167;28;20119;-81
2022/06/28 05:26:09;;;;;;;10.93;3.33;;;;;;;;;;5050790;28;20124;-82
2022/06/28 05:28:35;;;;;;;8.30;3.80;;;;;;;;;;5052426;28;20065;-81
2022/06/28 05:31:01;;;;;;;11.15;3.67;;;;;;;;;;5033260;28;20103;-82
2022/06/28 05:33:27;;;;;;;7.55;3.03;;;;;;;;;;5051093;28;20048;-81
2022/06/28 05:35:54;;;;;;;7.93;3.30;;;;;;;;;;5051534;28;20048;-82
2022/06/28 05:38:20;;;;;;;8.52;3.20;;;;;;;;;;5050131;28;20089;-81
2022/06/28 05:40:46;;;;;;;7.65;2.63;;;;;;;;;;5051752;28;20083;-82
2022/06/28 05:43:12;;;;;;;7.63;3.00;;;;;;;;;;5050607;28;20090;-81
2022/06/28 05:45:38;;;;;;;12.30;3.28;;;;;;;;;;5033717;28;20093;-82
2022/06/28 05:48:04;;;;;;;10.10;3.33;;;;;;;;;;5050334;28;20101;-82
2022/06/28 05:50:30;;;;;;;8.88;3.22;;;;;;;;;;5050779;28;20049;-82
2022/06/28 05:52:56;;;;;;;6.63;2.67;;;;;;;;;;5049327;28;20051;-82
2022/06/28 05:55:22;;;;;;;9.20;3.25;;;;;;;;;;5050759;28;20040;-81
2022/06/28 05:57:48;;;;;;;12.27;3.30;;;16.90;99.90;;;;;;5050319;28;20083;-82
2022/06/28 06:00:15;;;;;;;8.00;3.08;;;16.80;99.90;;;;;;5049802;28;20081;-81
2022/06/28 06:02:41;;;;;;;7.68;3.50;;;16.90;99.90;;;;;;5050886;28;20394;-82
2022/06/28 06:05:07;;;;;;;10.38;3.65;;;17.00;99.90;;;;;;5050157;28;20098;-82
2022/06/28 06:07:33;;;;;;;8.00;3.15;;;17.00;99.90;;;;;;5049836;28;20040;-82
2022/06/28 06:09:58;;;;;;;9.55;3.85;;;17.00;99.90;;;;;;5050326;28;20067;-81
2022/06/28 06:12:24;;;;;;;7.55;3.10;;;17.10;99.90;;;;;;5050657;28;20049;-81
2022/06/28 06:14:50;;;;;;;9.55;3.03;;;17.20;99.90;;;;;;5051027;28;20110;-82
2022/06/28 06:17:15;;;;;;;8.38;4.38;;;17.30;99.90;;;;;;5050395;28;20391;-82
2022/06/28 06:19:41;;;;;;;9.77;3.95;;;17.30;99.90;;;;;;5056156;28;20057;-82
2022/06/28 06:22:07;;;;;;;9.13;3.90;;;17.40;99.90;;;;;;5061799;28;20397;-82
2022/06/28 06:24:33;;;;;;;8.57;3.40;;;17.50;99.90;;;;;;5053872;28;20033;-81
2022/06/28 06:26:58;;;;;;;9.27;3.10;;;17.60;99.90;;;;;;5039414;28;20041;-82
2022/06/28 06:29:25;;;;;;;9.25;3.80;;;17.60;99.90;;;;;;5055556;28;20044;-81
2022/06/28 06:31:52;;;;;;;10.45;3.33;;;17.60;99.90;;;;;;5057583;28;20041;-82
2022/06/28 06:34:18;;;;;;;8.52;3.10;;;;;;;;;;5066455;28;20058;-82
2022/06/28 06:36:45;;;;;;;11.25;3.50;;;18.00;99.90;;;;;;5073579;28;20533;-81
2022/06/28 06:39:11;;;;;;;8.07;3.35;;;;;;;;;;5054505;28;20116;-81
2022/06/28 06:41:37;;;;;;;8.93;2.95;;;;;;;;;;5071470;28;20115;-80
2022/06/28 06:44:03;;;;;;;8.68;3.08;;;;;;;;;;5073190;28;20051;-81
2022/06/28 06:46:30;;;;;;;8.88;3.67;;;;;;;;;;5073818;28;20490;-81
2022/06/28 06:48:56;;;;;;;7.25;3.70;;;;;;;;;;5068799;28;20098;-80
2022/06/28 06:51:22;;;;;;;7.75;2.85;;;;;;;;;;5063377;28;20045;-78
2022/06/28 06:53:48;;;;;;;8.50;3.42;;;;;;;;;;5056760;28;20037;-76
2022/06/28 06:56:14;;;;;;;12.55;3.70;;;;;;;;;;5071296;28;20048;-79
2022/06/28 06:58:40;;;;;;;10.82;3.00;;;;;;;;;;5070429;28;20044;-79
2022/06/28 07:01:06;;;;;;;7.07;3.10;;;;;;;;;;5070219;28;20118;-79
2022/06/28 07:03:32;;;;;;;7.20;2.60;;;;;;;;;;5071296;28;20040;-80
2022/06/28 07:05:58;;;;;;;11.05;3.42;;;;;;;;;;5064542;28;20390;-79
2022/06/28 07:08:24;;;;;;;8.52;3.60;;;;;;;;;;5054057;28;20041;-79
2022/06/28 07:10:50;;;;;;;9.75;3.45;;;;;;;;;;5051486;28;20094;-79
2022/06/28 07:13:16;;;;;;;6.25;2.80;;;;;;;;;;5054591;28;20045;-79
2022/06/28 07:15:42;;;;;;;9.40;2.97;;;;;;;;;;5052972;28;20040;-79
2022/06/28 07:18:08;;;;;;;11.10;3.20;;;;;;;;;;5058495;28;20049;-79
2022/06/28 07:20:34;;;;;;;10.63;4.07;;;;;;;;;;5033970;28;20045;-79
2022/06/28 07:23:00;;;;;;;7.78;2.20;;;;;;;;;;5049657;28;20032;-80
2022/06/28 07:25:26;;;;;;;11.07;2.55;;;;;;;;;;5050316;28;20114;-80
2022/06/28 07:27:52;;;;;;;7.55;1.98;;;;;;;;;;5033549;28;20041;-79
2022/06/28 07:30:19;;;;;;;9.27;2.08;;;;;;;;;;5049184;28;20128;-79
2022/06/28 07:32:45;;;;;;;6.68;1.98;;;;;;;;;;5051057;28;20057;-79
2022/06/28 07:35:11;;;;;;;8.00;2.25;;;;;;;;;;5054025;28;20044;-79
2022/06/28 07:37:37;;;;;;;5.88;2.10;;;;;;;;;;5056806;28;20489;-79
2022/06/28 07:40:05;;;;;;;10.10;2.33;;;;;;;;;;5061393;28;20051;-79
2022/06/28 07:42:31;;;;;;;6.47;1.67;;;;;;;;;;5062084;28;20139;-78
2022/06/28 07:44:58;;;;;;;8.38;1.70;;;;;;;;;;5055751;28;20029;-80
2022/06/28 07:47:24;;;;;;;6.65;1.95;;;;;;;;;;5067544;28;20028;-79
2022/06/28 07:52:36;;;;;;;6.43;1.80;;;;;;;;;;5061458;28;20049;-80
2022/06/28 07:55:03;;;;;;;11.80;1.85;;;;;;;;;;5051539;28;20040;-79
2022/06/28 07:57:30;;;;;;;12.15;2.40;;;;;;;;;;5052729;28;20505;-78
2022/06/28 07:59:56;;;;;;;7.68;2.22;;;;;;;;;;5053012;28;20102;-78
2022/06/28 08:02:23;;;;;;;6.63;2.00;;;;;;;;;;5054543;28;20043;-74
2022/06/28 08:04:50;;;;;;;6.95;2.20;;;;;;;;;;5053624;28;20040;-74
2022/06/28 08:07:17;;;;;;;6.60;1.70;;;;;;;;;;5069822;28;20028;-74
2022/06/28 08:09:43;;;;;;;7.88;1.85;;;;;;;;;;5039040;28;20082;-73
2022/06/28 08:12:09;;;;;;;8.27;2.00;;;;;;;;;;5070058;28;20123;-71
2022/06/28 08:14:35;;;;;;;9.75;1.77;;;;;;;;;;5064007;28;20555;-71
2022/06/28 08:17:02;;;;;;;8.35;2.13;;;;;;;;;;5067987;28;20047;-71
2022/06/28 08:19:28;;;;;;;10.52;2.67;;;;;;;;;;5053858;28;20065;-71
2022/06/28 08:21:55;;;;;;;11.93;3.05;;;;;;;;;;5062596;28;20045;-73
2022/06/28 08:24:21;;;;;;;7.20;2.08;;;;;;;;;;5044967;28;20033;-72
2022/06/28 08:26:47;;;;;;;8.35;2.17;;;;;;;;;;5072072;28;20040;-73
2022/06/28 08:29:14;;;;;;;7.00;2.00;;;;;;;;;;5071837;28;20459;-72
2022/06/28 08:31:40;;;;;;;6.35;1.63;;;;;;;;;;5071872;28;20044;-72
2022/06/28 08:34:07;;;;;;;8.68;2.00;;;;;;;;;;5065208;28;20059;-72
2022/06/28 08:36:33;;;;;;;6.88;2.00;;;;;;;;;;5062618;28;20116;-71
2022/06/28 08:38:59;;;;;;;6.93;1.63;;;;;;;;;;5066833;28;20103;-69
2022/06/28 08:41:27;;;;;;;5.93;1.77;;;;;;;;;;5060437;28;20493;-71
2022/06/28 08:43:54;;;;;;;6.40;2.53;;;19.70;99.90;;;;;;5066558;28;20050;-71
2022/06/28 08:46:21;;;;;;;6.25;1.80;;;19.70;99.90;;;;;;5069286;28;20393;-71
2022/06/28 08:48:52;;;;;;;9.40;2.10;;;19.80;99.90;;;;;;5058567;28;20033;-75
2022/06/28 08:51:18;;;;;;;4.63;1.63;;;19.90;99.90;;;;;;5052857;28;20401;-75
2022/06/28 08:53:47;;;;;;;5.75;2.00;;;20.00;99.90;;;;;;5051290;28;20060;-75
2022/06/28 08:56:13;;;;;;;4.43;1.80;;;20.00;99.90;;;;;;5050902;28;20517;-79
2022/06/28 08:58:44;;;;;;;5.78;1.73;;;20.10;99.90;;;;;;5052849;28;20041;-80
2022/06/28 09:01:13;;;;;;;5.80;1.85;;;20.20;99.90;;;;;;5052685;28;20048;-79
2022/06/28 09:03:40;;;;;;;5.70;2.00;;;20.40;99.90;;;;;;5052799;28;20126;-78
2022/06/28 09:06:06;;;;;;;7.32;1.77;;;20.40;99.90;;;;;;5052838;28;20037;-79
2022/06/28 09:08:32;;;;;;;6.43;1.63;;;20.60;99.90;;;;;;5067127;28;20035;-62
2022/06/28 09:10:58;;;;;;;6.80;2.25;;;20.60;99.90;;;;;;5057288;28;20132;-64
2022/06/28 09:13:24;;;;;;;6.95;2.08;;;20.60;99.90;;;;;;5065426;28;20123;-63
2022/06/28 09:16:02;;;;;;;10.48;1.50;;;20.50;99.90;;;;;;5062127;28;20044;-63
2022/06/28 09:18:36;;;;;;;7.18;1.50;;;20.50;99.90;;;;;;5052862;28;20088;-62
2022/06/28 09:21:05;;;;;;;6.90;1.85;;;20.60;99.90;;;;;;5051378;28;20547;-62
2022/06/28 09:23:34;;;;;;;6.80;1.92;;;20.60;99.90;;;;;;5051532;28;20040;-62
2022/06/28 09:26:18;;;;;;;8.55;1.65;;;20.80;99.90;;;;;;5054074;28;20046;-62
2022/06/28 09:28:49;;;;;;;7.82;2.25;;;;;;;;;;5056032;28;20296;-62
2022/06/28 09:31:15;;;;;;;7.65;2.13;;;;;;;;;;5052443;28;20378;-62
2022/06/28 09:33:41;;;;;;;8.90;2.83;;;;;;;;;;5051798;28;20036;-63
2022/06/28 09:36:10;;;;;;;7.43;2.28;;;;;;;;;;5055092;28;20056;-62
2022/06/28 09:38:36;;;;;;;6.45;1.88;;;;;;;;;;5056681;28;20051;-62
2022/06/28 09:41:02;;;;;;;6.05;1.92;;;;;;;;;;5057909;28;20044;-62
2022/06/28 09:43:32;;;;;;;6.32;1.63;;;;;;;;;;5053327;28;20189;-63
2022/06/28 09:45:58;;;;;;;6.68;1.60;;;;;;;;;;5060726;28;20036;-63
2022/06/28 09:48:25;;;;;;;10.57;2.05;;;;;;;;;;5050451;28;20041;-63
2022/06/28 09:50:57;;;;;;;6.63;1.75;;;;;;;;;;5065115;28;20044;-63
2022/06/28 09:53:25;;;;;;;7.20;1.90;;;;;;;;;;5063326;28;20386;-63
2022/06/28 09:55:52;;;;;;;6.78;1.48;;;;;;;;;;5069763;28;20066;-63
2022/06/28 09:58:20;;;;;;;11.30;2.25;;;;;;;;;;5053163;28;20498;-63
2022/06/28 10:00:46;;;;;;;7.70;1.70;;;;;;;;;;5045990;28;20486;-63
2022/06/28 10:03:12;;;;;;;4.53;1.55;;;;;;;;;;5037081;28;20048;-64
2022/06/28 10:05:38;;;;;;;8.25;1.80;;;;;;;;;;5067292;28;20052;-64
2022/06/28 10:08:05;;;;;;;7.95;2.45;;;;;;;;;;5064983;28;20074;-64
2022/06/28 10:10:31;;;;;;;5.95;1.63;;;;;;;;;;5061080;28;20028;-64
2022/06/28 10:15:48;;;;;;;8.00;2.17;;;;;;;;;;5068149;28;20048;-64
2022/06/28 10:18:19;;;;;;;9.35;2.30;;;;;;;;;;5070939;28;20497;-65
2022/06/28 10:20:46;;;;;;;6.82;1.80;;;21.50;99.90;;;;;;5070509;28;20059;-64
2022/06/28 10:23:34;;;;;;;7.35;2.22;;;21.50;97.00;;;;;;5071857;28;20079;-64
2022/06/28 10:26:15;;;;;;;8.40;1.70;;;21.40;96.10;;;;;;5070406;28;20457;-62
2022/06/28 10:28:41;;;;;;;6.25;1.95;;;21.30;92.90;;;;;;5067431;28;20029;-62
2022/06/28 10:31:23;;;;;;;7.38;2.22;;;;;;;;;;5052013;28;20401;-62
2022/06/28 10:33:51;;;;;;;6.90;1.92;;;20.90;94.60;;;;;;5063308;28;20048;-61
2022/06/28 10:36:18;;;;;;;6.45;1.95;;;20.80;95.80;;;;;;5052218;28;20041;-62
2022/06/28 10:39:09;;;;;;;7.68;2.40;;;20.90;96.50;;;;;;5064036;28;20612;-62
2022/06/28 10:41:41;;;;;;;10.93;2.70;;;21.00;95.30;;;;;;5055764;28;20405;-60
2022/06/28 10:44:20;;;;;;;6.07;2.20;;;21.00;94.90;;;;;;5053942;28;20029;-61
2022/06/28 10:47:05;;;;;;;6.47;1.75;;;20.90;93.40;;;;;;5062445;28;20167;-61
2022/06/28 10:49:46;;;;;;;;;;;20.80;94.40;;;;;;5037594;28;20037;-60
2022/06/28 10:52:14;;;;;;;5.15;1.58;;;21.30;99.90;;;;;;5054125;28;19917;-61
2022/06/28 10:54:52;;;;;;;5.85;2.03;;;21.20;93.40;;;;;;5065225;28;20383;-62
2022/06/28 10:57:20;;;;;;;6.32;1.98;;;21.70;98.60;;;;;;5062460;28;20041;-61
2022/06/28 10:59:49;;;;;;;12.90;2.10;;;21.60;99.90;;;;;;5057538;28;20124;-60
2022/06/28 11:02:15;;;;;;;8.30;1.98;;;;;;;;;;5072364;28;20039;-63
2022/06/28 11:04:41;;;;;;;11.52;2.00;;;;;;;;;;5050747;28;20386;-62
2022/06/28 11:07:22;;;;;;;6.35;2.03;;;22.10;99.10;;;;;;5064583;28;20094;-63
2022/06/28 11:10:13;;;;;;;4.95;1.83;;;22.20;97.30;;;;;;5053538;28;20045;-62
2022/06/28 11:12:41;;;;;;;8.63;2.10;;;22.20;92.10;;;;;;5054547;28;20118;-62
2022/06/28 11:15:12;;;;;;;6.57;1.88;;;22.40;94.10;;;;;;5052540;28;20049;-62
2022/06/28 11:17:42;;;;;;;7.90;1.90;;;22.50;93.00;;;;;;5054604;28;20037;-62
2022/06/28 11:20:19;;;;;;;7.25;1.80;;;22.50;97.60;;;;;;5036083;28;20055;-62
2022/06/28 11:22:49;;;;;;;5.78;1.58;;;22.70;99.90;;;;;;5052246;28;20091;-63
2022/06/28 11:25:15;;;;;;;11.73;2.15;;;;;;;;;;5054248;28;20033;-62
2022/06/28 11:27:58;;;;;;;8.48;2.25;;;23.00;96.90;;;;;;5053026;28;20083;-62
2022/06/28 11:30:28;;;;;;;6.50;2.25;;;22.90;99.90;;;;;;5069039;28;20106;-62
2022/06/28 11:32:59;;;;;;;8.05;2.35;;;22.90;95.80;;;;;;5053802;28;20041;-62
2022/06/28 11:35:30;;;;;;;5.93;1.77;;;22.80;83.50;;;;;;5054386;28;20036;-63
2022/06/28 11:38:05;;;;;;;5.05;1.65;;;22.60;83.10;;;;;;5051780;28;20063;-63
2022/06/28 11:40:47;;;;;;;5.22;2.17;;;22.50;84.80;;;;;;5054119;28;20044;-63
2022/06/28 11:43:14;;;;;;;6.25;1.95;;;22.60;85.20;;;;;;5052536;28;20510;-63
2022/06/28 11:45:42;;;;;;;7.32;2.15;;;22.20;99.90;;;;;;5053820;28;20040;-63
2022/06/28 11:48:28;;;;;;;9.25;2.63;;;22.80;99.90;;;;;;5053877;28;20033;-63
2022/06/28 11:50:56;;;;;;;7.78;2.42;;;22.90;99.90;;;;;;5034721;28;20466;-63
2022/06/28 11:53:22;;;;;;;5.68;2.03;;;;;;;;;;5053550;28;20041;-62
2022/06/28 11:55:49;;;;;;;6.75;1.90;;;23.20;83.20;;;;;;5052285;28;20052;-62
2022/06/28 11:58:17;;;;;;;5.70;1.90;;;23.10;85.30;;;;;;5052806;28;20060;-63
2022/06/28 12:01:08;;;;;;;8.52;1.85;;;23.10;81.00;;;;;;5053519;28;20041;-62
2022/06/28 12:03:53;;;;;;;5.38;1.73;;;23.10;82.90;;;;;;5052620;28;20437;-62
2022/06/28 12:06:19;;;;;;;6.00;1.70;;;;;;;;;;5051452;28;20460;-62
2022/06/28 12:08:55;;;;;;;6.65;1.48;;;23.00;82.00;;;;;;5053397;28;20128;-63
2022/06/28 12:11:49;;;;;;;7.97;2.13;;;23.20;83.30;;;;;;5053496;28;20045;-63
2022/06/28 12:14:17;;;;;;;7.57;2.05;;;23.30;98.30;;;;;;5052990;28;20045;-63
2022/06/28 12:16:43;;;;;;;8.27;2.33;;;;;;;;;;5053270;28;20041;-63
2022/06/28 12:19:13;;;;;;;7.10;1.85;;;23.10;99.90;;;;;;5050752;28;20104;-62
2022/06/28 12:21:58;;;;;;;6.60;1.60;;;22.90;99.90;;;;;;5052048;28;20132;-63
2022/06/28 12:24:43;;;;;;;6.75;2.35;;;23.00;81.00;;;;;;5053394;28;20045;-63
2022/06/28 12:27:09;;;;;;;;;;;23.00;81.20;;;;;;5051516;28;20037;-63
2022/06/28 12:29:35;;;;;;;6.65;1.63;;;23.20;99.90;;;;;;5053118;28;20360;-63
2022/06/28 12:32:01;;;;;;;5.82;1.35;;;23.40;99.60;;;;;;5051192;28;20060;-63
2022/06/28 12:34:27;;;;;;;4.97;1.92;;;;;;;;;;5052146;28;20379;-63
2022/06/28 12:36:53;;;;;;;5.15;1.48;;;;;;;;;;5051086;28;20041;-63
2022/06/28 12:39:19;;;;;;;6.18;2.10;;;;;;;;;;5051699;28;20033;-63
2022/06/28 12:41:45;;;;;;;5.55;1.40;;;;;;;;;;5051828;28;20047;-63
2022/06/28 12:44:11;;;;;;;8.88;1.80;;;;;;;;;;5051295;28;20167;-63
2022/06/28 12:46:37;;;;;;;4.88;1.73;;;;;;;;;;5052117;28;20087;-63
2022/06/28 12:49:03;;;;;;;8.10;1.63;;;;;;;;;;5051123;28;20041;-63
2022/06/28 12:51:29;;;;;;;5.45;1.65;;;;;;;;;;5051553;28;20045;-63
2022/06/28 12:53:55;;;;;;;6.43;2.15;;;;;;;;;;5050066;28;20049;-63
2022/06/28 12:56:21;;;;;;;5.57;1.52;;;;;;;;;;5052624;28;20128;-63
2022/06/28 12:58:48;;;;;;;6.95;2.00;;;;;;;;;;5052399;28;20044;-63
2022/06/28 13:01:14;;;;;;;5.70;1.73;;;;;;;;;;5051543;28;20037;-63
2022/06/28 13:03:41;;;;;;;5.40;1.60;;;;;;;;;;5051374;28;20049;-63
2022/06/28 13:06:08;;;;;;;4.93;1.50;;;;;;;;;;5051843;28;20037;-63
2022/06/28 13:08:34;;;;;;;3.85;1.40;;;;;;;;;;5050483;28;20041;-63
2022/06/28 13:11:00;;;;;;;7.53;1.58;;;;;;;;;;5052094;28;20049;-63
2022/06/28 13:13:28;;;;;;;6.80;2.08;;;;;;;;;;5051199;28;20041;-63
2022/06/28 13:15:54;;;;;;;5.93;1.73;;;;;;;;;;5049940;28;20057;-63
2022/06/28 13:18:20;;;;;;;7.07;1.63;;;;;;;;;;5050914;28;20048;-63
2022/06/28 13:20:46;;;;;;;6.85;1.48;;;;;;;;;;5050598;28;20080;-63
2022/06/28 13:23:12;;;;;;;5.22;1.73;;;;;;;;;;5051429;28;20041;-63
2022/06/28 13:25:39;;;;;;;5.53;1.50;;;;;;;;;;5051274;28;20036;-63
2022/06/28 13:28:05;;;;;;;6.47;1.63;;;;;;;;;;5050970;28;20505;-63
2022/06/28 13:30:31;;;;;;;4.72;1.73;;;;;;;;;;5033342;28;20048;-63
2022/06/28 13:32:57;;;;;;;4.82;1.70;;;;;;;;;;5050506;28;20040;-63
2022/06/28 13:35:23;;;;;;;5.88;1.75;;;;;;;;;;5051935;28;20041;-63
2022/06/28 13:37:49;;;;;;;4.93;2.00;;;;;;;;;;5049728;28;20128;-63
2022/06/28 13:40:15;;;;;;;8.18;2.58;;;;;;;;;;5033995;28;20041;-64
2022/06/28 13:42:41;;;;;;;6.90;1.67;;;;;;;;;;5052339;28;20033;-64
2022/06/28 13:45:09;;;;;;;4.80;1.70;;;24.20;99.90;;;;;;5063704;28;20068;-64
2022/06/28 13:47:37;;;;;;;6.57;1.90;;;24.10;99.70;;;;;;5037967;28;20124;-63
2022/06/28 13:50:03;;;;;;;4.57;1.63;;;23.70;99.90;;;;;;5060973;28;20123;-62
2022/06/28 13:52:29;;;;;;;5.10;1.67;;;24.00;82.00;;;;;;5072253;28;20059;-63
2022/06/28 13:54:54;;;;;;;7.63;1.70;;;23.50;98.70;;;;;;5052610;28;20049;-63
2022/06/28 13:57:25;;;;;;;4.13;1.70;;;;;;;;;;5071814;28;20051;-61
2022/06/28 13:59:51;;;;;;;6.85;1.63;;;23.10;99.90;;;;;;5071960;28;20052;-62
2022/06/28 14:02:18;;;;;;;6.57;2.10;;;22.50;99.90;;;;;;5070337;28;20068;-62
2022/06/28 14:04:43;;;;;;;10.23;2.35;;;23.00;99.90;;;;;;5068736;28;20051;-63
2022/06/28 14:07:09;;;;;;;7.10;1.75;;;23.20;99.90;;;;;;5052262;28;20033;-62
2022/06/28 14:09:35;;;;;;;9.02;1.60;;;23.00;86.90;;;;;;5063363;28;20033;-63
2022/06/28 14:12:01;;;;;;;7.32;1.70;;;;;;;;;;5070610;28;20482;-62
2022/06/28 14:14:27;;;;;;;9.93;2.30;;;;;;;;;;5053903;28;20079;-62
2022/06/28 14:16:53;;;;;;;7.43;1.67;;;;;;;;;;5054194;28;20041;-62
2022/06/28 14:19:19;;;;;;;6.18;1.77;;;;;;;;;;5059568;28;20053;-63
2022/06/28 14:21:45;;;;;;;7.38;2.17;;;;;;;;;;5053966;28;20052;-63